createdAt,value
2023-03-27T00:01:21.948Z,2.08
2023-03-27T00:03:50.105Z,2.33
2023-03-27T00:06:18.084Z,2.45
2023-03-27T00:08:46.661Z,1.92
2023-03-27T00:11:14.444Z,1.75
2023-03-27T00:13:49.302Z,2.53
2023-03-27T00:16:19.586Z,2.25
2023-03-27T00:18:46.805Z,2.50
2023-03-27T00:21:13.368Z,2.30
2023-03-27T00:23:40.372Z,2.78
2023-03-27T00:26:06.977Z,2.65
2023-03-27T00:28:34.101Z,2.30
2023-03-27T00:31:00.743Z,2.97
2023-03-27T00:33:27.615Z,2.40
2023-03-27T00:35:54.140Z,2.45
2023-03-27T00:38:21.389Z,2.55
2023-03-27T00:40:49.242Z,2.40
2023-03-27T00:43:28.299Z,2.63
2023-03-27T00:46:01.359Z,2.58
2023-03-27T00:48:31.503Z,2.25
2023-03-27T00:50:58.881Z,2.00
2023-03-27T00:53:28.577Z,2.25
2023-03-27T00:55:59.014Z,2.33
2023-03-27T00:58:44.862Z,2.10
2023-03-27T01:01:14.745Z,2.22
2023-03-27T01:03:43.237Z,2.38
2023-03-27T01:06:11.174Z,2.22
2023-03-27T01:08:37.987Z,2.20
2023-03-27T01:11:31.363Z,2.45
2023-03-27T01:14:19.479Z,1.90
2023-03-27T01:17:22.860Z,1.95
2023-03-27T01:20:27.279Z,2.75
2023-03-27T01:23:06.987Z,1.88
2023-03-27T01:25:45.341Z,2.05
2023-03-27T01:28:30.541Z,2.38
2023-03-27T01:31:24.347Z,2.87
2023-03-27T01:34:13.721Z,2.42
2023-03-27T01:36:45.962Z,2.17
2023-03-27T01:39:42.407Z,2.65
2023-03-27T01:44:57.072Z,2.30
2023-03-27T01:47:32.457Z,2.15
2023-03-27T01:50:08.282Z,2.13
2023-03-27T01:52:38.727Z,2.25
2023-03-27T01:55:11.635Z,1.73
2023-03-27T01:57:50.134Z,1.67
2023-03-27T02:00:22.660Z,1.90
2023-03-27T02:03:09.502Z,2.50
2023-03-27T02:05:40.445Z,1.80
2023-03-27T02:08:16.608Z,2.80
2023-03-27T02:10:48.069Z,2.20
2023-03-27T02:13:22.506Z,2.03
2023-03-27T02:15:51.385Z,2.25
2023-03-27T02:18:28.448Z,2.40
2023-03-27T02:20:55.341Z,1.90
2023-03-27T02:23:22.952Z,2.22
2023-03-27T02:25:50.328Z,2.70
2023-03-27T02:28:29.861Z,2.30
2023-03-27T02:31:34.015Z,2.00
2023-03-27T02:34:29.053Z,1.92
2023-03-27T02:37:21.430Z,2.17
2023-03-27T02:40:01.070Z,2.20
2023-03-27T02:42:41.422Z,2.28
2023-03-27T02:45:10.859Z,2.17
2023-03-27T02:47:42.362Z,2.05
2023-03-27T02:50:19.277Z,1.88
2023-03-27T02:52:51.383Z,2.30
2023-03-27T02:55:22.310Z,2.40
2023-03-27T02:57:53.725Z,2.15
2023-03-27T03:00:28.169Z,2.22
2023-03-27T03:03:08.387Z,2.28
2023-03-27T03:05:37.113Z,2.13
2023-03-27T03:08:05.311Z,2.55
2023-03-27T03:10:33.285Z,2.60
2023-03-27T03:13:00.411Z,2.28
2023-03-27T03:15:27.064Z,2.42
2023-03-27T03:17:53.745Z,2.20
2023-03-27T03:20:21.492Z,2.35
2023-03-27T03:22:47.874Z,2.67
2023-03-27T03:25:14.616Z,2.33
2023-03-27T03:27:41.359Z,2.38
2023-03-27T03:30:09.675Z,1.98
2023-03-27T03:32:36.399Z,2.38
2023-03-27T03:35:03.051Z,2.33
2023-03-27T03:37:29.464Z,3.25
2023-03-27T03:39:55.968Z,2.97
2023-03-27T03:42:24.035Z,2.28
2023-03-27T03:44:51.025Z,2.90
2023-03-27T03:47:17.530Z,2.53
2023-03-27T03:49:43.963Z,2.35
2023-03-27T03:52:10.437Z,2.50
2023-03-27T03:54:38.600Z,2.90
2023-03-27T03:57:05.294Z,2.50
2023-03-27T03:59:32.058Z,2.67
2023-03-27T04:01:58.441Z,2.53
2023-03-27T04:04:25.251Z,1.90
2023-03-27T04:06:52.921Z,2.33
2023-03-27T04:09:19.335Z,1.88
2023-03-27T04:11:46.925Z,2.47
2023-03-27T04:14:13.453Z,2.30
2023-03-27T04:16:39.822Z,2.42
2023-03-27T04:19:07.133Z,2.58
2023-03-27T04:21:33.476Z,2.67
2023-03-27T04:24:02.792Z,2.25
2023-03-27T04:26:29.848Z,2.33
2023-03-27T04:28:56.331Z,2.42
2023-03-27T04:31:22.749Z,2.67
2023-03-27T04:33:52.181Z,2.40
2023-03-27T04:36:19.401Z,2.05
2023-03-27T04:38:47.813Z,2.22
2023-03-27T04:41:14.239Z,2.47
2023-03-27T04:43:41.525Z,2.30
2023-03-27T04:46:08.351Z,2.55
2023-03-27T04:48:39.018Z,2.08
2023-03-27T04:51:06.637Z,2.33
2023-03-27T04:53:35.858Z,2.28
2023-03-27T04:56:02.275Z,2.60
2023-03-27T04:58:28.704Z,3.47
2023-03-27T05:00:56.460Z,2.40
2023-03-27T05:03:24.009Z,2.85
2023-03-27T05:05:50.585Z,2.35
2023-03-27T05:08:17.589Z,2.88
2023-03-27T05:10:45.683Z,3.35
2023-03-27T05:13:12.700Z,2.75
2023-03-27T05:15:39.287Z,2.53
2023-03-27T05:18:07.256Z,3.25
2023-03-27T05:20:34.127Z,2.58
2023-03-27T05:23:00.635Z,2.60
2023-03-27T05:25:28.821Z,1.90
2023-03-27T05:27:55.536Z,2.47
2023-03-27T05:30:23.752Z,2.50
2023-03-27T05:32:52.325Z,2.75
2023-03-27T05:35:21.487Z,2.50
2023-03-27T05:37:50.300Z,2.67
2023-03-27T05:40:21.855Z,2.70
2023-03-27T05:42:49.829Z,2.50
2023-03-27T05:45:16.976Z,2.63
2023-03-27T05:47:46.139Z,2.40
2023-03-27T05:50:12.921Z,2.63
2023-03-27T05:52:39.255Z,2.10
2023-03-27T05:55:06.685Z,2.20
2023-03-27T05:57:33.050Z,2.33
2023-03-27T06:00:00.397Z,2.05
2023-03-27T06:02:27.699Z,3.22
2023-03-27T06:04:54.340Z,2.38
2023-03-27T06:07:20.803Z,2.30
2023-03-27T06:09:47.154Z,2.45
2023-03-27T06:12:13.574Z,2.70
2023-03-27T06:14:39.948Z,2.92
2023-03-27T06:17:06.445Z,2.58
2023-03-27T06:19:32.817Z,3.33
2023-03-27T06:21:59.236Z,2.85
2023-03-27T06:24:26.285Z,3.20
2023-03-27T06:26:52.952Z,2.75
2023-03-27T06:29:19.467Z,2.72
2023-03-27T06:31:45.920Z,2.88
2023-03-27T06:34:14.906Z,2.70
2023-03-27T06:36:41.520Z,3.53
2023-03-27T06:39:08.161Z,3.10
2023-03-27T06:41:34.610Z,2.90
2023-03-27T06:44:01.554Z,3.20
2023-03-27T06:46:42.753Z,3.20
2023-03-27T06:49:11.529Z,2.88
2023-03-27T06:51:38.057Z,2.92
2023-03-27T06:54:04.659Z,2.58
2023-03-27T06:56:31.340Z,3.08
2023-03-27T06:58:57.954Z,2.42
2023-03-27T07:01:24.389Z,2.25
2023-03-27T07:03:50.838Z,2.65
2023-03-27T07:06:19.307Z,2.60
2023-03-27T07:08:47.754Z,2.42
2023-03-27T07:11:15.664Z,2.90
2023-03-27T07:13:42.344Z,2.33
2023-03-27T07:16:12.368Z,3.30
2023-03-27T07:18:38.958Z,3.97
2023-03-27T07:21:07.618Z,4.28
2023-03-27T07:23:34.259Z,3.95
2023-03-27T07:26:01.834Z,4.10
2023-03-27T07:28:28.252Z,4.18
2023-03-27T07:30:54.885Z,4.28
2023-03-27T07:33:22.113Z,3.20
2023-03-27T07:35:48.761Z,2.90
2023-03-27T07:38:16.567Z,2.90
2023-03-27T07:40:46.023Z,3.10
2023-03-27T07:43:12.595Z,3.20
2023-03-27T07:45:39.725Z,3.03
2023-03-27T07:48:16.244Z,2.35
2023-03-27T07:50:43.510Z,2.60
2023-03-27T07:53:10.034Z,2.75
2023-03-27T07:55:59.110Z,2.33
2023-03-27T07:58:25.630Z,2.60
2023-03-27T08:00:52.593Z,2.38
2023-03-27T08:03:20.519Z,2.40
2023-03-27T08:05:55.937Z,2.35
2023-03-27T08:08:23.192Z,1.83
2023-03-27T08:10:50.704Z,2.40
2023-03-27T08:13:17.561Z,2.10
2023-03-27T08:15:43.964Z,2.67
2023-03-27T08:18:11.544Z,2.45
2023-03-27T08:20:38.488Z,1.98
2023-03-27T08:23:05.003Z,2.53
2023-03-27T08:25:34.788Z,2.50
2023-03-27T08:28:02.816Z,3.13
2023-03-27T08:30:30.075Z,2.75
2023-03-27T08:32:56.900Z,1.90
2023-03-27T08:35:23.541Z,2.20
2023-03-27T08:37:50.058Z,2.03
2023-03-27T08:40:26.203Z,1.83
2023-03-27T08:42:57.117Z,2.30
2023-03-27T08:45:32.151Z,1.92
2023-03-27T08:48:11.128Z,2.05
2023-03-27T08:50:45.544Z,2.30
2023-03-27T08:53:50.583Z,2.38
2023-03-27T08:56:20.624Z,1.75
2023-03-27T08:58:47.268Z,1.77
2023-03-27T09:01:22.137Z,2.60
2023-03-27T09:04:03.711Z,1.63
2023-03-27T09:06:39.656Z,2.08
2023-03-27T09:09:31.039Z,2.15
2023-03-27T09:12:11.013Z,1.52
2023-03-27T09:14:43.389Z,1.63
2023-03-27T09:17:16.968Z,1.88
2023-03-27T09:19:49.471Z,2.03
2023-03-27T09:22:22.975Z,1.90
2023-03-27T09:24:54.210Z,1.75
2023-03-27T09:27:24.853Z,1.83
2023-03-27T09:30:19.940Z,1.67
2023-03-27T09:32:51.006Z,1.52
2023-03-27T09:35:20.313Z,1.75
2023-03-27T09:37:50.797Z,1.90
2023-03-27T09:40:45.196Z,1.85
2023-03-27T09:43:18.400Z,1.30
2023-03-27T09:45:48.918Z,2.65
2023-03-27T09:48:34.633Z,2.08
2023-03-27T09:51:02.397Z,1.60
2023-03-27T09:53:28.808Z,1.60
2023-03-27T09:56:12.770Z,1.80
2023-03-27T09:58:48.988Z,1.70
2023-03-27T10:01:19.857Z,1.50
2023-03-27T10:03:48.777Z,1.73
2023-03-27T10:06:26.186Z,1.25
2023-03-27T10:08:53.592Z,1.58
2023-03-27T10:11:25.600Z,1.80
2023-03-27T10:13:53.274Z,1.60
2023-03-27T10:16:22.364Z,1.45
2023-03-27T10:18:52.253Z,1.55
2023-03-27T10:21:23.396Z,1.30
2023-03-27T10:23:50.368Z,1.52
2023-03-27T10:26:20.986Z,1.60
2023-03-27T10:28:54.046Z,1.45
2023-03-27T10:31:37.576Z,1.48
2023-03-27T10:34:06.908Z,1.83
2023-03-27T10:36:38.557Z,1.80
2023-03-27T10:39:13.872Z,1.73
2023-03-27T10:41:41.056Z,1.58
2023-03-27T10:44:17.700Z,1.48
2023-03-27T10:46:45.084Z,1.42
2023-03-27T10:49:21.770Z,1.10
2023-03-27T10:51:57.656Z,1.13
2023-03-27T10:57:02.583Z,1.17
2023-03-27T10:59:41.832Z,0.93
2023-03-27T11:02:19.708Z,1.00
2023-03-27T11:04:53.598Z,1.23
2023-03-27T11:07:46.548Z,1.02
2023-03-27T11:10:19.463Z,1.13
2023-03-27T11:12:55.532Z,1.00
2023-03-27T11:15:51.353Z,0.90
2023-03-27T11:18:29.646Z,1.13
2023-03-27T11:21:12.803Z,0.98
2023-03-27T11:23:46.860Z,1.10
2023-03-27T11:26:16.196Z,1.20
2023-03-27T11:28:48.664Z,1.10
2023-03-27T11:31:46.277Z,0.95
2023-03-27T11:34:28.931Z,1.10
2023-03-27T11:37:21.465Z,1.25
2023-03-27T11:39:53.966Z,1.00
2023-03-27T11:42:27.479Z,1.15
2023-03-27T11:44:55.026Z,0.90
2023-03-27T11:47:43.304Z,0.80
2023-03-27T11:50:36.007Z,0.90
2023-03-27T11:53:30.394Z,1.02
2023-03-27T11:56:11.989Z,1.27
2023-03-27T11:59:24.323Z,1.10
2023-03-27T12:02:21.405Z,1.20
2023-03-27T12:04:59.985Z,1.27
2023-03-27T12:07:47.904Z,1.27
2023-03-27T12:10:29.126Z,0.90
2023-03-27T12:13:41.319Z,1.10
2023-03-27T12:16:11.843Z,0.85
2023-03-27T12:18:51.163Z,1.48
2023-03-27T12:21:33.260Z,0.88
2023-03-27T12:24:30.030Z,1.00
2023-03-27T12:30:13.482Z,0.90
2023-03-27T12:33:01.675Z,1.08
2023-03-27T12:35:36.471Z,1.00
2023-03-27T12:38:08.320Z,0.90
2023-03-27T12:40:48.358Z,1.58
2023-03-27T12:43:17.894Z,0.90
2023-03-27T12:46:07.471Z,1.20
2023-03-27T12:48:46.273Z,0.80
2023-03-27T12:51:19.774Z,0.70
2023-03-27T12:53:54.401Z,1.00
2023-03-27T12:56:25.266Z,0.85
2023-03-27T12:58:54.726Z,0.80
2023-03-27T13:01:49.150Z,0.90
2023-03-27T13:04:51.948Z,0.80
2023-03-27T13:07:43.368Z,0.80
2023-03-27T13:10:26.587Z,0.90
2023-03-27T13:13:33.638Z,1.00
2023-03-27T13:16:16.177Z,1.08
2023-03-27T13:19:12.820Z,1.27
2023-03-27T13:22:06.888Z,1.35
2023-03-27T13:25:03.251Z,1.00
2023-03-27T13:27:38.997Z,1.10
2023-03-27T13:32:37.320Z,1.00
2023-03-27T13:35:19.205Z,0.80
2023-03-27T13:37:48.606Z,0.70
2023-03-27T13:40:39.581Z,1.02
2023-03-27T13:43:30.910Z,0.80
2023-03-27T13:46:05.007Z,0.93
2023-03-27T13:48:56.362Z,0.80
2023-03-27T13:51:22.682Z,0.95
2023-03-27T13:54:24.623Z,0.90
2023-03-27T13:57:22.087Z,0.90
2023-03-27T14:00:19.778Z,0.90
2023-03-27T14:03:05.198Z,1.50
2023-03-27T14:06:03.218Z,1.10
2023-03-27T14:08:45.628Z,1.08
2023-03-27T14:11:49.021Z,1.35
2023-03-27T14:14:37.207Z,1.33
2023-03-27T14:17:38.878Z,0.95
2023-03-27T14:20:23.784Z,1.30
2023-03-27T14:23:16.478Z,1.33
2023-03-27T14:25:49.229Z,1.10
2023-03-27T14:28:46.708Z,0.98
2023-03-27T14:31:19.172Z,0.90
2023-03-27T14:33:50.408Z,1.10
2023-03-27T14:36:17.053Z,1.02
2023-03-27T14:38:43.604Z,0.90
2023-03-27T14:41:26.725Z,1.05
2023-03-27T14:43:54.091Z,1.35
2023-03-27T14:46:22.832Z,1.25
2023-03-27T14:48:55.885Z,1.70
2023-03-27T14:51:36.967Z,1.10
2023-03-27T14:54:18.835Z,1.55
2023-03-27T14:56:47.729Z,1.00
2023-03-27T14:59:24.197Z,1.38
2023-03-27T15:01:52.374Z,0.77
2023-03-27T15:04:19.455Z,0.70
2023-03-27T15:06:46.064Z,0.98
2023-03-27T15:09:15.596Z,1.10
2023-03-27T15:11:48.251Z,0.90
2023-03-27T15:14:18.456Z,1.15
2023-03-27T15:16:52.751Z,0.75
2023-03-27T15:19:27.120Z,0.85
2023-03-27T15:22:02.645Z,0.98
2023-03-27T15:24:43.096Z,1.05
2023-03-27T15:27:27.482Z,1.30
2023-03-27T15:30:02.704Z,0.75
2023-03-27T15:32:42.598Z,1.20
2023-03-27T15:35:15.703Z,1.20
2023-03-27T15:37:42.930Z,1.10
2023-03-27T15:40:10.856Z,1.15
2023-03-27T15:42:46.500Z,1.10
2023-03-27T15:45:16.670Z,1.15
2023-03-27T15:47:43.499Z,1.25
2023-03-27T15:50:20.046Z,1.35
2023-03-27T15:52:51.401Z,1.38
2023-03-27T15:55:55.328Z,1.85
2023-03-27T15:58:28.308Z,2.00
2023-03-27T16:01:00.664Z,1.60
2023-03-27T16:03:30.590Z,1.42
2023-03-27T16:05:58.610Z,1.35
2023-03-27T16:08:28.853Z,1.70
2023-03-27T16:10:55.753Z,1.20
2023-03-27T16:13:33.235Z,1.50
2023-03-27T16:16:04.210Z,1.20
2023-03-27T16:18:40.056Z,1.20
2023-03-27T16:23:34.429Z,0.90
2023-03-27T16:26:02.316Z,1.15
2023-03-27T16:28:29.940Z,0.82
2023-03-27T16:30:57.995Z,1.13
2023-03-27T16:33:27.456Z,1.83
2023-03-27T16:35:55.581Z,1.23
2023-03-27T16:38:22.029Z,1.20
2023-03-27T16:40:49.609Z,1.40
2023-03-27T16:43:16.560Z,1.25
2023-03-27T16:45:43.214Z,1.90
2023-03-27T16:48:10.592Z,1.48
2023-03-27T16:50:37.120Z,1.40
2023-03-27T16:53:03.743Z,1.58
2023-03-27T16:55:30.533Z,1.20
2023-03-27T16:57:57.018Z,1.42
2023-03-27T17:00:23.753Z,1.40
2023-03-27T17:02:50.323Z,1.40
2023-03-27T17:05:16.848Z,1.42
2023-03-27T17:07:44.803Z,1.20
2023-03-27T17:10:11.276Z,1.40
2023-03-27T17:12:38.166Z,1.30
2023-03-27T17:15:05.116Z,1.42
2023-03-27T17:17:31.941Z,1.80
2023-03-27T17:19:58.585Z,2.00
2023-03-27T17:22:26.470Z,1.98
2023-03-27T17:24:56.996Z,2.65
2023-03-27T17:27:25.695Z,2.15
2023-03-27T17:29:52.125Z,2.15
2023-03-27T17:32:18.546Z,1.77
2023-03-27T17:34:44.980Z,1.50
2023-03-27T17:37:12.468Z,1.83
2023-03-27T17:39:39.403Z,2.25
2023-03-27T17:42:06.574Z,1.73
2023-03-27T17:44:32.988Z,1.63
2023-03-27T17:47:00.260Z,1.65
2023-03-27T17:49:27.791Z,1.85
2023-03-27T17:51:54.136Z,1.90
2023-03-27T17:54:20.569Z,1.70
2023-03-27T17:56:46.988Z,1.52
2023-03-27T17:59:13.403Z,1.65
2023-03-27T18:01:39.906Z,1.90
2023-03-27T18:04:06.727Z,1.70
2023-03-27T18:06:33.258Z,1.63
2023-03-27T18:08:59.758Z,2.38
2023-03-27T18:11:26.605Z,3.08
2023-03-27T18:13:53.208Z,3.78
2023-03-27T18:16:21.893Z,3.60
2023-03-27T18:18:48.890Z,2.00
2023-03-27T18:21:16.453Z,2.58
2023-03-27T18:23:46.470Z,2.10
2023-03-27T18:26:13.544Z,2.28
2023-03-27T18:28:39.934Z,1.92
2023-03-27T18:31:08.916Z,2.13
2023-03-27T18:33:36.413Z,1.83
2023-03-27T18:36:04.474Z,1.77
2023-03-27T18:38:31.007Z,2.25
2023-03-27T18:40:57.774Z,1.58
2023-03-27T18:43:24.376Z,1.63
2023-03-27T18:45:58.501Z,2.05
2023-03-27T18:48:26.225Z,1.70
2023-03-27T18:51:01.006Z,1.85
2023-03-27T18:53:28.244Z,1.90
2023-03-27T18:55:55.418Z,1.70
2023-03-27T18:58:26.654Z,1.83
2023-03-27T19:00:53.733Z,1.77
2023-03-27T19:03:23.436Z,1.70
2023-03-27T19:05:51.696Z,1.40
2023-03-27T19:08:23.965Z,1.63
2023-03-27T19:10:50.316Z,1.52
2023-03-27T19:13:16.922Z,2.25
2023-03-27T19:15:43.617Z,1.65
2023-03-27T19:18:10.241Z,1.90
2023-03-27T19:20:36.625Z,2.20
2023-03-27T19:23:03.453Z,2.25
2023-03-27T19:25:29.942Z,2.30
2023-03-27T19:27:56.366Z,1.77
2023-03-27T19:30:23.061Z,2.00
2023-03-27T19:32:50.490Z,1.50
2023-03-27T19:35:17.246Z,1.70
2023-03-27T19:37:43.618Z,1.73
2023-03-27T19:40:10.496Z,1.30
2023-03-27T19:42:36.939Z,1.55
2023-03-27T19:45:03.504Z,1.55
2023-03-27T19:47:29.964Z,1.88
2023-03-27T19:49:56.487Z,1.98
2023-03-27T19:52:23.061Z,2.22
2023-03-27T19:54:49.844Z,2.10
2023-03-27T19:57:16.330Z,1.88
2023-03-27T19:59:42.751Z,1.83
2023-03-27T20:02:14.282Z,1.80
2023-03-27T20:04:40.798Z,1.83
2023-03-27T20:07:07.594Z,2.30
2023-03-27T20:09:34.566Z,1.85
2023-03-27T20:12:01.306Z,1.73
2023-03-27T20:14:27.675Z,2.33
2023-03-27T20:16:54.428Z,1.95
2023-03-27T20:19:22.028Z,1.73
2023-03-27T20:21:48.592Z,1.95
2023-03-27T20:24:17.338Z,2.33
2023-03-27T20:26:48.083Z,2.03
2023-03-27T20:29:18.404Z,1.80
2023-03-27T20:31:46.660Z,1.95
2023-03-27T20:34:13.192Z,2.47
2023-03-27T20:36:43.328Z,1.88
2023-03-27T20:39:14.155Z,1.98
2023-03-27T20:41:40.713Z,1.77
2023-03-27T20:44:14.901Z,2.20
2023-03-27T20:46:46.954Z,2.05
2023-03-27T20:49:37.657Z,1.90
2023-03-27T20:52:07.328Z,2.03
2023-03-27T20:54:34.005Z,1.88
2023-03-27T20:57:01.435Z,2.00
2023-03-27T20:59:28.205Z,2.45
2023-03-27T21:01:54.605Z,2.67
2023-03-27T21:04:21.515Z,2.25
2023-03-27T21:06:47.914Z,1.85
2023-03-27T21:09:14.249Z,1.52
2023-03-27T21:11:41.021Z,2.00
2023-03-27T21:14:07.809Z,2.03
2023-03-27T21:16:34.273Z,1.80
2023-03-27T21:19:00.721Z,2.05
2023-03-27T21:21:27.432Z,1.75
2023-03-27T21:23:54.136Z,2.00
2023-03-27T21:26:20.717Z,1.60
2023-03-27T21:28:47.087Z,2.10
2023-03-27T21:31:13.778Z,2.05
2023-03-27T21:33:40.162Z,1.60
2023-03-27T21:36:07.131Z,1.92
2023-03-27T21:38:33.646Z,1.80
2023-03-27T21:41:02.025Z,2.40
2023-03-27T21:43:28.754Z,2.30
2023-03-27T21:45:55.497Z,1.80
2023-03-27T21:48:21.867Z,1.80
2023-03-27T21:50:48.269Z,2.35
2023-03-27T21:53:16.775Z,2.55
2023-03-27T21:55:43.151Z,2.50
2023-03-27T21:58:09.563Z,1.88
2023-03-27T22:00:36.065Z,2.38
2023-03-27T22:03:02.819Z,1.98
2023-03-27T22:05:29.416Z,2.28
2023-03-27T22:07:57.519Z,2.45
2023-03-27T22:10:23.859Z,2.35
2023-03-27T22:12:50.288Z,2.08
2023-03-27T22:15:16.796Z,2.33
2023-03-27T22:17:43.343Z,2.03
2023-03-27T22:20:10.196Z,1.85
2023-03-27T22:22:37.110Z,2.08
2023-03-27T22:25:04.194Z,2.53
2023-03-27T22:27:31.132Z,2.70
2023-03-27T22:29:57.624Z,2.50
2023-03-27T22:32:24.056Z,2.47
2023-03-27T22:34:51.612Z,2.42
2023-03-27T22:37:20.039Z,2.25
2023-03-27T22:39:47.153Z,2.35
2023-03-27T22:42:13.506Z,1.85
2023-03-27T22:44:39.912Z,2.83
2023-03-27T22:47:06.288Z,2.30
2023-03-27T22:49:32.676Z,2.83
2023-03-27T22:51:59.184Z,2.15
2023-03-27T22:54:25.735Z,2.22
2023-03-27T22:56:54.994Z,2.40
2023-03-27T22:59:21.462Z,2.33
2023-03-27T23:01:48.031Z,2.22
2023-03-27T23:04:14.476Z,2.88
2023-03-27T23:06:41.020Z,2.13
2023-03-27T23:09:09.142Z,2.40
2023-03-27T23:11:35.476Z,2.10
2023-03-27T23:14:01.824Z,2.38
2023-03-27T23:16:28.293Z,2.83
2023-03-27T23:18:54.639Z,2.28
2023-03-27T23:21:21.152Z,2.45
2023-03-27T23:23:47.568Z,2.78
2023-03-27T23:26:14.061Z,2.45
2023-03-27T23:28:41.877Z,2.50
2023-03-27T23:31:15.570Z,2.60
2023-03-27T23:33:44.793Z,2.17
2023-03-27T23:36:12.756Z,2.92
2023-03-27T23:38:40.275Z,2.50
2023-03-27T23:41:08.477Z,2.38
2023-03-27T23:43:35.726Z,2.63
2023-03-27T23:46:03.958Z,2.22
2023-03-27T23:48:31.110Z,2.35
2023-03-27T23:50:57.986Z,2.10
2023-03-27T23:53:26.139Z,2.25
2023-03-27T23:55:53.137Z,2.75
2023-03-27T23:58:19.929Z,2.17
